Time;durP1;ratioP1;P1;durP2;ratioP2;P2;SDS_P1;SDS_P2;PMS_P1;PMS_P2;Temp;Humidity;BMP_temperature;BMP_pressure;BME280_temperature;BME280_humidity;BME280_pressure;Samples;Min_cycle;Max_cycle;Signal;HPM_P1;HPM_P2
2021/12/11 00:00:30;;;;;;;9.07;8.67;;;3.70;99.90;;;;;;4924111;29;20586;-77
2021/12/11 00:03:02;;;;;;;9.10;8.70;;;3.70;99.90;;;;;;4931157;29;20556;-78
2021/12/11 00:05:29;;;;;;;7.60;7.13;;;3.70;99.90;;;;;;4936781;29;20247;-78
2021/12/11 00:07:56;;;;;;;6.43;6.13;;;3.70;99.90;;;;;;4945061;29;20214;-79
2021/12/11 00:10:30;;;;;;;6.53;6.23;;;3.80;99.90;;;;;;4944864;29;20218;-78
2021/12/11 00:13:03;;;;;;;6.07;5.77;;;3.70;99.90;;;;;;4945033;29;20191;-77
2021/12/11 00:15:34;;;;;;;6.20;6.00;;;3.70;99.90;;;;;;4945957;29;20660;-79
2021/12/11 00:18:06;;;;;;;6.07;5.80;;;3.80;99.90;;;;;;4946413;29;20395;-79
2021/12/11 00:20:34;;;;;;;5.93;5.73;;;3.80;99.90;;;;;;4950130;29;20203;-78
2021/12/11 00:23:01;;;;;;;6.17;5.97;;;3.80;99.90;;;;;;4943692;29;20198;-77
2021/12/11 00:25:27;;;;;;;6.13;5.93;;;3.80;99.90;;;;;;4943025;29;20184;-79
2021/12/11 00:28:03;;;;;;;6.67;6.37;;;3.80;99.90;;;;;;4943687;29;20235;-79
2021/12/11 00:30:35;;;;;;;6.03;5.83;;;3.80;99.90;;;;;;4944388;29;20203;-78
2021/12/11 00:33:10;;;;;;;6.53;6.27;;;3.80;99.90;;;;;;4947339;29;20193;-77
2021/12/11 00:35:37;;;;;;;7.23;6.93;;;3.80;99.90;;;;;;4946769;29;20187;-78
2021/12/11 00:38:09;;;;;;;6.40;6.10;;;3.80;99.90;;;;;;4944169;29;20190;-77
2021/12/11 00:40:37;;;;;;;6.77;6.57;;;3.80;99.90;;;;;;4946117;29;20202;-77
2021/12/11 00:43:06;;;;;;;7.00;6.70;;;3.80;99.90;;;;;;4948979;29;20278;-77
2021/12/11 00:45:35;;;;;;;15.40;14.70;;;3.80;99.90;;;;;;4968839;29;20197;-79
2021/12/11 00:48:06;;;;;;;8.00;7.70;;;3.80;99.90;;;;;;4943842;29;20181;-79
2021/12/11 00:50:41;;;;;;;10.77;10.23;;;3.70;99.90;;;;;;4950318;29;20214;-78
2021/12/11 00:53:09;;;;;;;11.60;10.73;;;3.70;99.90;;;;;;4944660;29;20190;-77
2021/12/11 00:55:42;;;;;;;11.20;10.73;;;3.60;99.90;;;;;;4937832;29;20195;-78
2021/12/11 00:58:16;;;;;;;10.33;9.93;;;3.40;99.90;;;;;;4941334;29;20190;-77
2021/12/11 01:01:06;;;;;;;6.40;6.10;;;3.10;99.90;;;;;;4951443;29;20206;-77
2021/12/11 01:03:56;;;;;;;7.80;7.50;;;2.90;99.90;;;;;;4951200;29;20186;-77
2021/12/11 01:06:30;;;;;;;64.07;60.97;;;2.80;99.90;;;;;;4948618;29;20234;-77
2021/12/11 01:09:19;;;;;;;20.50;19.60;;;2.60;99.90;;;;;;4944615;29;20239;-77
2021/12/11 01:11:57;;;;;;;31.60;30.20;;;2.60;99.90;;;;;;4945900;29;20313;-77
2021/12/11 01:14:36;;;;;;;5.23;5.13;;;2.50;99.90;;;;;;4953193;28;20201;-77
2021/12/11 01:17:25;;;;;;;5.70;5.40;;;2.50;99.90;;;;;;4938982;29;20182;-77
2021/12/11 01:19:56;;;;;;;5.17;4.97;;;2.40;99.90;;;;;;4941418;28;20695;-77
2021/12/11 01:22:33;;;;;;;7.20;6.90;;;2.40;99.90;;;;;;4935862;29;20335;-77
2021/12/11 01:25:25;;;;;;;7.40;7.10;;;2.40;99.90;;;;;;4919816;29;20218;-77
2021/12/11 01:27:54;;;;;;;7.70;7.40;;;2.30;99.90;;;;;;4937947;29;20191;-77
2021/12/11 01:30:41;;;;;;;8.60;8.30;;;2.30;99.90;;;;;;4938970;29;20262;-76
2021/12/11 01:33:09;;;;;;;8.00;7.70;;;2.30;99.90;;;;;;4937864;29;20274;-77
2021/12/11 01:35:35;;;;;;;7.83;7.43;;;2.30;99.90;;;;;;4940321;29;20273;-77
2021/12/11 01:38:06;;;;;;;8.17;7.87;;;2.30;99.90;;;;;;4939659;29;20186;-78
2021/12/11 01:40:32;;;;;;;6.87;6.60;;;2.20;99.90;;;;;;4937347;29;20212;-77
2021/12/11 01:43:00;;;;;;;7.37;6.73;;;2.20;99.90;;;;;;4919880;29;20192;-77
2021/12/11 01:45:27;;;;;;;7.10;6.80;;;2.20;99.90;;;;;;4919881;29;20179;-77
2021/12/11 01:47:53;;;;;;;6.67;6.43;;;2.20;99.90;;;;;;4919835;29;20183;-76
2021/12/11 01:50:28;;;;;;;6.27;6.07;;;2.20;99.90;;;;;;4923300;29;20325;-76
2021/12/11 01:53:09;;;;;;;5.83;5.63;;;2.20;99.90;;;;;;4922412;29;20214;-76
2021/12/11 01:55:46;;;;;;;5.57;5.37;;;2.10;99.90;;;;;;4940448;29;20633;-76
2021/12/11 01:58:20;;;;;;;5.90;5.70;;;2.10;99.90;;;;;;4945107;29;20194;-76
2021/12/11 02:00:56;;;;;;;5.60;5.40;;;2.10;99.90;;;;;;4942088;29;20271;-77
2021/12/11 02:03:27;;;;;;;6.07;5.87;;;2.00;99.90;;;;;;4940801;29;20182;-77
2021/12/11 02:05:53;;;;;;;5.90;5.70;;;2.00;99.90;;;;;;4940950;29;20187;-76
2021/12/11 02:08:28;;;;;;;6.67;6.30;;;2.00;99.90;;;;;;4940342;29;20323;-77
2021/12/11 02:11:06;;;;;;;6.10;5.90;;;2.00;99.90;;;;;;4941321;29;20214;-78
2021/12/11 02:13:41;;;;;;;6.43;6.13;;;2.00;99.90;;;;;;4940304;29;20190;-77
2021/12/11 02:16:21;;;;;;;6.20;5.90;;;2.00;99.90;;;;;;4924365;29;20215;-77
2021/12/11 02:18:51;;;;;;;6.47;6.17;;;2.00;99.90;;;;;;4940266;29;20219;-78
2021/12/11 02:21:35;;;;;;;7.07;6.77;;;1.90;99.90;;;;;;4938850;29;20581;-77
2021/12/11 02:24:10;;;;;;;6.67;6.37;;;2.00;99.90;;;;;;4937718;29;20178;-77
2021/12/11 02:26:39;;;;;;;6.77;6.47;;;1.90;99.90;;;;;;4936931;29;20185;-78
2021/12/11 02:29:21;;;;;;;6.70;6.40;;;1.90;99.90;;;;;;4938022;29;20250;-77
2021/12/11 02:32:02;;;;;;;6.83;6.53;;;1.90;99.90;;;;;;4938698;29;20213;-77
2021/12/11 02:34:40;;;;;;;13.00;12.43;;;1.90;99.90;;;;;;4940760;29;20210;-77
2021/12/11 02:37:40;;;;;;;13.47;12.67;;;1.90;99.90;;;;;;4955454;28;20186;-77
2021/12/11 02:40:21;;;;;;;13.30;12.60;;;1.80;99.90;;;;;;4917965;29;20734;-77
2021/12/11 02:43:12;;;;;;;13.60;13.00;;;1.80;99.90;;;;;;4923148;29;20710;-77
2021/12/11 02:45:43;;;;;;;17.17;16.27;;;1.90;99.90;;;;;;4936078;29;20188;-77
2021/12/11 02:48:20;;;;;;;20.77;19.77;;;1.80;99.90;;;;;;4936170;29;20190;-76
2021/12/11 02:50:54;;;;;;;19.83;18.93;;;1.80;99.90;;;;;;4921366;29;20230;-77
2021/12/11 02:53:23;;;;;;;21.47;20.47;;;1.80;99.90;;;;;;4939827;29;20198;-78
2021/12/11 02:56:00;;;;;;;21.27;20.23;;;1.80;99.90;;;;;;4941195;29;20241;-77
2021/12/11 02:58:32;;;;;;;22.63;21.47;;;1.80;99.90;;;;;;4940174;29;20245;-77
2021/12/11 03:01:28;;;;;;;21.03;19.93;;;1.80;99.90;;;;;;4939952;29;20214;-78
2021/12/11 03:04:24;;;;;;;18.90;18.00;;;1.90;99.90;;;;;;4942203;29;20187;-77
2021/12/11 03:06:56;;;;;;;19.37;18.37;;;1.80;99.90;;;;;;4949569;29;20190;-78
2021/12/11 03:09:25;;;;;;;18.67;17.77;;;1.80;99.90;;;;;;4929855;29;20194;-77
2021/12/11 03:11:54;;;;;;;19.97;19.03;;;1.80;99.90;;;;;;4938464;29;20855;-76
2021/12/11 03:14:21;;;;;;;21.63;20.07;;;1.90;99.90;;;;;;4938882;29;20249;-78
2021/12/11 03:16:50;;;;;;;19.17;18.27;;;1.90;99.90;;;;;;4939063;29;20197;-78
2021/12/11 03:19:20;;;;;;;20.27;19.23;;;1.90;99.90;;;;;;4939003;29;20571;-78
2021/12/11 03:21:48;;;;;;;21.30;20.20;;;1.90;99.90;;;;;;4942677;29;20206;-77
2021/12/11 03:24:15;;;;;;;20.43;19.43;;;1.90;99.90;;;;;;4942373;29;20193;-78
2021/12/11 03:26:43;;;;;;;19.53;18.53;;;1.90;99.90;;;;;;4936615;29;20182;-77
2021/12/11 03:29:10;;;;;;;20.27;19.07;;;2.00;99.90;;;;;;4945058;29;20198;-76
2021/12/11 03:31:38;;;;;;;21.07;19.73;;;2.00;99.90;;;;;;4945589;29;20234;-78
2021/12/11 03:34:07;;;;;;;20.10;19.10;;;2.00;99.90;;;;;;4962097;29;20186;-76
2021/12/11 03:36:34;;;;;;;17.43;16.53;;;2.10;99.90;;;;;;4954475;29;20174;-77
2021/12/11 03:39:10;;;;;;;18.53;17.63;;;2.10;99.90;;;;;;4947154;29;20206;-77
2021/12/11 03:41:37;;;;;;;18.33;17.43;;;2.10;99.90;;;;;;4968129;29;20277;-76
2021/12/11 03:44:05;;;;;;;16.70;15.70;;;2.10;99.90;;;;;;4943451;29;20554;-77
2021/12/11 03:46:32;;;;;;;15.60;14.80;;;2.10;99.90;;;;;;4942124;29;20189;-78
2021/12/11 03:49:03;;;;;;;13.83;13.03;;;2.10;99.90;;;;;;4943198;29;20250;-79
2021/12/11 03:51:34;;;;;;;13.80;13.00;;;2.20;99.90;;;;;;4951437;23;20231;-77
2021/12/11 03:54:03;;;;;;;14.87;14.07;;;2.20;99.90;;;;;;4929396;29;20195;-76
2021/12/11 03:56:29;;;;;;;15.17;14.27;;;2.30;99.90;;;;;;4929842;29;20214;-77
2021/12/11 03:58:55;;;;;;;17.97;16.97;;;2.20;99.90;;;;;;4929603;29;20222;-76
2021/12/11 04:01:29;;;;;;;15.47;14.57;;;2.30;99.90;;;;;;4914625;29;20570;-76
2021/12/11 04:03:59;;;;;;;15.00;13.63;;;2.30;99.90;;;;;;4914804;29;20198;-76
2021/12/11 04:06:26;;;;;;;16.30;15.40;;;2.30;99.90;;;;;;4913783;29;20551;-77
2021/12/11 04:08:54;;;;;;;17.80;16.83;;;2.30;99.90;;;;;;4914513;29;20186;-76
2021/12/11 04:11:28;;;;;;;18.37;17.27;;;2.30;99.90;;;;;;4914755;29;20207;-77
2021/12/11 04:13:58;;;;;;;19.83;18.63;;;2.30;99.90;;;;;;4918515;29;20195;-77
2021/12/11 04:16:27;;;;;;;19.13;18.03;;;2.30;99.90;;;;;;4942583;29;20250;-77
2021/12/11 04:18:53;;;;;;;18.50;17.40;;;2.30;99.90;;;;;;4916724;29;20241;-77
2021/12/11 04:21:20;;;;;;;17.40;16.40;;;2.30;99.90;;;;;;4914199;29;20265;-77
2021/12/11 04:23:46;;;;;;;16.47;15.30;;;2.30;99.90;;;;;;4913603;29;20182;-77
2021/12/11 04:26:12;;;;;;;16.90;15.90;;;2.30;99.90;;;;;;4914709;29;20274;-77
2021/12/11 04:28:43;;;;;;;16.67;15.60;;;2.30;99.90;;;;;;4914734;29;20240;-77
2021/12/11 04:31:19;;;;;;;16.03;14.83;;;2.30;99.90;;;;;;4894392;29;20268;-77
2021/12/11 04:33:49;;;;;;;16.90;15.90;;;2.30;99.90;;;;;;4895451;29;20668;-77
2021/12/11 04:36:28;;;;;;;17.03;15.93;;;2.30;99.90;;;;;;4894388;29;20222;-77
2021/12/11 04:38:56;;;;;;;15.47;14.57;;;2.30;99.90;;;;;;4897273;29;20614;-77
2021/12/11 04:41:31;;;;;;;16.23;15.27;;;2.40;99.90;;;;;;4912775;29;20750;-77
2021/12/11 04:43:58;;;;;;;14.43;13.53;;;2.40;99.90;;;;;;4915133;29;20186;-76
2021/12/11 04:46:24;;;;;;;14.53;13.73;;;2.40;99.90;;;;;;4918165;29;20184;-76
2021/12/11 04:51:33;;;;;;;15.27;14.30;;;2.40;99.90;;;;;;4917379;29;20218;-77
2021/12/11 04:54:12;;;;;;;15.03;14.13;;;2.40;99.90;;;;;;4916938;29;20186;-76
2021/12/11 04:59:55;;;;;;;16.27;15.17;;;2.40;99.90;;;;;;4917558;29;20691;-76
2021/12/11 05:02:54;;;;;;;17.10;16.10;;;2.40;99.90;;;;;;4917625;29;20246;-76
2021/12/11 05:11:04;;;;;;;15.77;14.77;;;2.50;99.90;;;;;;4916920;29;20290;-76
2021/12/11 05:13:21;;;;;;;17.73;16.53;;;2.50;99.90;;;;;;4917376;29;20199;-76
2021/12/11 05:15:50;;;;;;;16.47;15.37;;;2.50;99.90;;;;;;4916659;29;20261;-76
2021/12/11 05:18:19;;;;;;;16.33;15.13;;;2.50;99.90;;;;;;4916498;29;20548;-76
2021/12/11 05:20:50;;;;;;;17.07;15.87;;;2.50;99.90;;;;;;4917387;29;20206;-76
2021/12/11 05:23:19;;;;;;;17.07;15.87;;;2.50;99.90;;;;;;4918736;29;20191;-76
2021/12/11 05:25:46;;;;;;;17.17;15.87;;;2.60;99.90;;;;;;4917008;29;20193;-76
2021/12/11 05:28:12;;;;;;;15.27;14.13;;;2.60;99.90;;;;;;4916269;29;20247;-76
2021/12/11 05:30:42;;;;;;;15.83;14.63;;;2.50;99.90;;;;;;4916360;29;20212;-76
2021/12/11 05:33:08;;;;;;;14.07;13.13;;;2.60;99.90;;;;;;4915981;29;20226;-76
2021/12/11 05:35:38;;;;;;;15.30;14.20;;;2.60;99.90;;;;;;4917006;29;20213;-76
2021/12/11 05:38:08;;;;;;;15.43;14.03;;;2.60;99.90;;;;;;4931673;29;20242;-76
2021/12/11 05:40:37;;;;;;;15.73;14.43;;;2.60;99.90;;;;;;4916628;29;20231;-76
2021/12/11 05:43:04;;;;;;;16.17;14.93;;;2.60;99.90;;;;;;4917058;29;20593;-76
2021/12/11 05:45:30;;;;;;;15.37;14.10;;;2.60;99.90;;;;;;4917050;29;20735;-76
2021/12/11 05:47:57;;;;;;;14.80;13.67;;;2.60;99.90;;;;;;4916986;29;20234;-76
2021/12/11 05:50:28;;;;;;;14.90;13.83;;;2.60;99.90;;;;;;4915949;29;20234;-76
2021/12/11 05:52:54;;;;;;;16.17;15.03;;;2.60;99.90;;;;;;4916719;29;20294;-76
2021/12/11 05:55:21;;;;;;;15.77;14.73;;;2.60;99.90;;;;;;4916983;29;20175;-76
2021/12/11 05:57:53;;;;;;;15.50;14.20;;;2.60;99.90;;;;;;4916804;29;20221;-76
2021/12/11 06:00:24;;;;;;;15.60;14.50;;;2.50;99.90;;;;;;4930829;29;20254;-75
2021/12/11 06:02:50;;;;;;;16.13;14.87;;;2.50;99.90;;;;;;4915326;29;20652;-75
2021/12/11 06:05:16;;;;;;;16.00;14.80;;;2.50;99.90;;;;;;4931149;29;20207;-75
2021/12/11 06:07:43;;;;;;;18.20;16.60;;;2.50;99.90;;;;;;4916667;29;20315;-75
2021/12/11 06:10:13;;;;;;;16.37;15.33;;;2.60;99.90;;;;;;4915960;29;20208;-75
2021/12/11 06:12:40;;;;;;;14.33;13.33;;;2.50;99.90;;;;;;4915668;29;20568;-75
2021/12/11 06:15:07;;;;;;;14.73;13.73;;;2.50;99.90;;;;;;4931099;29;20179;-77
2021/12/11 06:17:34;;;;;;;15.03;13.83;;;2.60;99.90;;;;;;4916508;29;20728;-75
2021/12/11 06:20:02;;;;;;;15.33;14.13;;;2.50;99.90;;;;;;4915710;29;20207;-76
2021/12/11 06:22:30;;;;;;;13.73;12.67;;;2.50;99.90;;;;;;4915137;29;20206;-75
2021/12/11 06:25:03;;;;;;;14.80;13.57;;;2.50;99.90;;;;;;4915621;29;20186;-76
2021/12/11 06:27:30;;;;;;;14.77;13.53;;;2.50;99.90;;;;;;4918448;29;20179;-78
2021/12/11 06:29:57;;;;;;;14.13;13.03;;;2.50;99.90;;;;;;4914593;29;20187;-76
2021/12/11 06:32:24;;;;;;;13.13;12.03;;;2.50;99.90;;;;;;4916092;29;20192;-76
2021/12/11 06:34:53;;;;;;;13.67;12.57;;;2.50;99.90;;;;;;4916139;29;20190;-76
2021/12/11 06:37:21;;;;;;;13.87;12.67;;;2.50;99.90;;;;;;4914990;29;20190;-76
2021/12/11 06:39:48;;;;;;;13.90;12.40;;;2.50;99.90;;;;;;4915156;29;20627;-76
2021/12/11 06:42:15;;;;;;;12.57;11.37;;;2.50;99.90;;;;;;4915692;29;20203;-76
2021/12/11 06:44:41;;;;;;;13.30;12.13;;;2.50;99.90;;;;;;4925866;29;20174;-76
2021/12/11 06:47:09;;;;;;;13.43;12.33;;;2.60;99.90;;;;;;4920187;29;20279;-77
2021/12/11 06:49:37;;;;;;;12.17;11.27;;;2.60;99.90;;;;;;4914365;29;20199;-76
2021/12/11 06:52:08;;;;;;;14.47;13.10;;;2.60;99.90;;;;;;4915559;29;20259;-76
2021/12/11 06:54:34;;;;;;;13.47;12.30;;;2.60;99.90;;;;;;4916166;29;20231;-76
2021/12/11 06:57:00;;;;;;;14.00;12.77;;;2.50;99.90;;;;;;4930189;29;20183;-77
2021/12/11 06:59:26;;;;;;;14.23;12.93;;;2.50;99.90;;;;;;4929809;29;20347;-76
2021/12/11 07:01:52;;;;;;;15.00;13.70;;;2.60;99.90;;;;;;4913579;29;20291;-76
2021/12/11 07:04:18;;;;;;;13.50;12.40;;;2.60;99.90;;;;;;4915429;29;20210;-76
2021/12/11 07:06:48;;;;;;;15.37;14.07;;;2.60;99.90;;;;;;4913562;29;20218;-76
2021/12/11 07:09:16;;;;;;;14.53;13.30;;;2.60;99.90;;;;;;4915402;29;20201;-76
2021/12/11 07:11:45;;;;;;;13.40;12.23;;;2.50;99.90;;;;;;4899331;29;20215;-76
2021/12/11 07:14:13;;;;;;;14.23;12.73;;;2.60;99.90;;;;;;4915433;29;20223;-76
2021/12/11 07:16:40;;;;;;;14.83;13.53;;;2.60;99.90;;;;;;4914270;29;20326;-77
2021/12/11 07:19:07;;;;;;;13.10;11.87;;;2.60;99.90;;;;;;4915289;29;20271;-77
2021/12/11 07:21:33;;;;;;;14.10;12.80;;;2.60;99.90;;;;;;4916232;29;20203;-76
2021/12/11 07:23:59;;;;;;;13.10;12.03;;;2.60;99.90;;;;;;4915274;29;20214;-76
2021/12/11 07:26:31;;;;;;;18.80;17.23;;;2.60;99.90;;;;;;4914111;29;20195;-76
2021/12/11 07:29:03;;;;;;;14.43;13.13;;;2.60;99.90;;;;;;4915855;29;20206;-76
2021/12/11 07:31:29;;;;;;;13.93;12.73;;;2.60;99.90;;;;;;4917312;29;20218;-76
2021/12/11 07:33:56;;;;;;;13.53;12.13;;;2.60;99.90;;;;;;4915597;29;20283;-76
2021/12/11 07:36:22;;;;;;;13.53;12.43;;;2.60;99.90;;;;;;4930059;29;20218;-76
2021/12/11 07:38:49;;;;;;;13.80;12.43;;;2.60;99.90;;;;;;4929884;29;20213;-77
2021/12/11 07:41:16;;;;;;;14.10;12.77;;;2.60;99.90;;;;;;4913207;29;20238;-75
2021/12/11 07:43:44;;;;;;;13.83;12.43;;;2.60;99.90;;;;;;4914819;29;20183;-74
2021/12/11 07:46:16;;;;;;;15.40;13.90;;;2.60;99.90;;;;;;4915522;29;20202;-74
2021/12/11 07:48:45;;;;;;;14.07;12.60;;;2.60;99.90;;;;;;4914952;29;20191;-75
2021/12/11 07:51:12;;;;;;;14.03;12.63;;;2.70;99.90;;;;;;4914431;29;20223;-74
2021/12/11 07:53:37;;;;;;;20.43;13.03;;;2.70;99.90;;;;;;4898620;29;20570;-74
2021/12/11 07:56:04;;;;;;;14.47;13.07;;;2.70;99.90;;;;;;4913215;29;20193;-75
2021/12/11 07:58:32;;;;;;;14.77;13.27;;;2.70;99.90;;;;;;4914469;29;20214;-75
2021/12/11 08:00:59;;;;;;;17.30;14.30;;;2.70;99.90;;;;;;4913831;29;20520;-75
2021/12/11 08:03:25;;;;;;;15.23;13.73;;;2.70;99.90;;;;;;4914692;29;20563;-75
2021/12/11 08:05:52;;;;;;;15.43;13.90;;;2.60;99.90;;;;;;4925115;29;20190;-74
2021/12/11 08:08:20;;;;;;;16.07;14.07;;;2.70;99.90;;;;;;4927403;29;20184;-74
2021/12/11 08:10:50;;;;;;;17.93;14.20;;;2.70;99.90;;;;;;4912680;29;20205;-75
2021/12/11 08:13:16;;;;;;;16.13;14.53;;;2.70;99.90;;;;;;4914719;29;20187;-75
2021/12/11 08:15:43;;;;;;;15.70;14.10;;;2.70;99.90;;;;;;4914649;29;20294;-75
2021/12/11 08:18:11;;;;;;;17.47;14.40;;;2.70;99.90;;;;;;4930241;29;20184;-74
2021/12/11 08:20:40;;;;;;;18.67;13.63;;;2.70;99.90;;;;;;4917155;29;20199;-74
2021/12/11 08:23:08;;;;;;;17.67;13.70;;;2.70;99.90;;;;;;4933380;29;20276;-74
2021/12/11 08:25:35;;;;;;;19.67;14.70;;;2.70;99.90;;;;;;4933418;29;20205;-75
2021/12/11 08:28:01;;;;;;;20.17;14.80;;;2.80;99.90;;;;;;4933033;29;20179;-75
2021/12/11 08:30:30;;;;;;;19.57;15.80;;;2.80;99.90;;;;;;4918423;29;20595;-74
2021/12/11 08:32:56;;;;;;;19.77;15.93;;;2.80;99.90;;;;;;4933194;29;20672;-75
2021/12/11 08:35:22;;;;;;;18.80;16.43;;;2.90;99.90;;;;;;4917149;29;20278;-75
2021/12/11 08:37:50;;;;;;;18.77;16.77;;;2.90;99.90;;;;;;4932983;29;20187;-75
2021/12/11 08:40:21;;;;;;;22.43;16.77;;;2.90;99.90;;;;;;4917202;29;20327;-75
2021/12/11 08:42:48;;;;;;;17.93;15.60;;;2.90;99.90;;;;;;4918126;29;20231;-75
2021/12/11 08:45:22;;;;;;;19.03;16.53;;;2.90;99.90;;;;;;4919431;29;20193;-76
2021/12/11 08:47:51;;;;;;;17.03;14.77;;;2.90;99.90;;;;;;4918092;29;20181;-75
2021/12/11 08:50:22;;;;;;;17.57;15.83;;;2.90;99.90;;;;;;4916469;29;20218;-75
2021/12/11 08:52:50;;;;;;;20.30;16.73;;;2.90;99.90;;;;;;4918118;29;20188;-75
2021/12/11 08:55:23;;;;;;;19.93;15.93;;;2.90;99.90;;;;;;4932718;29;20660;-75
2021/12/11 08:57:50;;;;;;;18.80;16.10;;;2.90;99.90;;;;;;4906174;29;20688;-76
2021/12/11 09:00:30;;;;;;;18.93;14.07;;;3.00;99.90;;;;;;4898628;29;20286;-75
2021/12/11 09:03:22;;;;;;;17.50;15.33;;;3.00;99.90;;;;;;4929934;29;20593;-76
2021/12/11 09:05:55;;;;;;;19.13;14.33;;;3.00;99.90;;;;;;4933100;29;20191;-74
2021/12/11 09:08:28;;;;;;;20.40;14.57;;;3.00;99.90;;;;;;4917980;29;20564;-75
2021/12/11 09:11:07;;;;;;;22.67;14.50;;;3.00;99.90;;;;;;4932543;29;20207;-76
2021/12/11 09:13:43;;;;;;;19.87;15.73;;;3.10;99.90;;;;;;4918467;29;20179;-75
2021/12/11 09:16:23;;;;;;;24.03;15.20;;;3.10;99.90;;;;;;4925655;29;20221;-71
2021/12/11 09:19:06;;;;;;;26.00;14.77;;;3.10;99.90;;;;;;4925817;29;20223;-71
2021/12/11 09:21:47;;;;;;;19.97;13.97;;;3.20;99.90;;;;;;4920977;29;20211;-71
2021/12/11 09:24:36;;;;;;;20.53;14.27;;;3.30;99.90;;;;;;4916839;29;20183;-74
2021/12/11 09:27:15;;;;;;;22.40;13.70;;;3.30;99.90;;;;;;4931586;29;20240;-74
2021/12/11 09:29:50;;;;;;;18.27;13.97;;;3.30;99.90;;;;;;4916406;29;20191;-75
2021/12/11 09:32:25;;;;;;;18.03;13.90;;;3.30;99.90;;;;;;4915831;29;20552;-69
2021/12/11 09:35:00;;;;;;;16.63;14.47;;;3.30;99.90;;;;;;4917281;29;20220;-70
2021/12/11 09:37:26;;;;;;;19.57;15.00;;;3.40;99.90;;;;;;4934861;29;20596;-69
2021/12/11 09:40:06;;;;;;;22.90;17.00;;;3.50;99.90;;;;;;4935656;29;20297;-70
2021/12/11 09:42:32;;;;;;;20.47;18.37;;;3.40;99.90;;;;;;4926275;29;20211;-70
2021/12/11 09:45:20;;;;;;;20.23;17.47;;;3.50;99.90;;;;;;4919621;29;20281;-68
2021/12/11 09:47:56;;;;;;;19.67;17.57;;;3.50;99.90;;;;;;4935537;29;20207;-76
2021/12/11 09:50:30;;;;;;;20.07;14.83;;;3.50;99.90;;;;;;4935216;29;20220;-75
2021/12/11 09:52:56;;;;;;;18.87;17.00;;;3.60;99.90;;;;;;4955712;23;20229;-74
2021/12/11 09:55:33;;;;;;;18.97;17.17;;;3.50;99.90;;;;;;4935089;29;20205;-75
2021/12/11 09:58:04;;;;;;;20.30;14.97;;;3.50;99.90;;;;;;4934496;29;20188;-75
2021/12/11 10:00:32;;;;;;;18.40;15.13;;;3.50;99.90;;;;;;4934215;29;20247;-74
2021/12/11 10:03:00;;;;;;;18.83;15.37;;;3.50;99.90;;;;;;4934971;29;20198;-77
2021/12/11 10:05:32;;;;;;;17.20;15.40;;;3.50;99.90;;;;;;4935797;29;20644;-76
2021/12/11 10:08:35;;;;;;;17.53;15.80;;;3.50;99.90;;;;;;4948066;29;20663;-74
2021/12/11 10:11:01;;;;;;;18.57;16.67;;;3.50;99.90;;;;;;4953791;28;20189;-75
2021/12/11 10:13:29;;;;;;;20.00;17.50;;;3.50;99.90;;;;;;4935277;29;20179;-75
2021/12/11 10:15:55;;;;;;;19.83;16.37;;;3.40;99.90;;;;;;4934301;29;20189;-75
2021/12/11 10:18:24;;;;;;;19.73;17.27;;;3.50;99.90;;;;;;4935457;29;20186;-75
2021/12/11 10:21:05;;;;;;;21.03;18.90;;;3.50;99.90;;;;;;4934112;29;20624;-76
2021/12/11 10:23:34;;;;;;;19.70;17.70;;;3.50;99.90;;;;;;4935367;29;20186;-75
2021/12/11 10:26:02;;;;;;;20.90;18.97;;;3.50;99.90;;;;;;4934515;29;20182;-75
2021/12/11 10:28:31;;;;;;;21.27;18.07;;;3.60;99.90;;;;;;4934126;29;20672;-75
2021/12/11 10:31:10;;;;;;;20.63;18.43;;;3.60;99.90;;;;;;4949812;29;20274;-75
2021/12/11 10:33:38;;;;;;;18.77;16.77;;;3.60;99.90;;;;;;4934830;29;20282;-75
2021/12/11 10:36:11;;;;;;;18.07;16.17;;;3.60;99.90;;;;;;4934752;29;20270;-73
2021/12/11 10:38:38;;;;;;;18.40;15.07;;;3.60;99.90;;;;;;4935102;29;20246;-73
2021/12/11 10:41:06;;;;;;;21.43;13.77;;;3.60;99.90;;;;;;4936610;29;20220;-74
2021/12/11 10:43:54;;;;;;;18.27;14.80;;;3.70;99.90;;;;;;4935207;29;20188;-74
2021/12/11 10:46:23;;;;;;;20.77;15.43;;;3.80;99.90;;;;;;4935582;29;20193;-74
2021/12/11 10:48:49;;;;;;;19.00;14.73;;;3.80;99.90;;;;;;4935336;29;20649;-74
2021/12/11 10:51:24;;;;;;;18.40;14.83;;;3.90;99.90;;;;;;4933514;29;20241;-74
2021/12/11 10:53:51;;;;;;;20.83;17.53;;;4.00;99.90;;;;;;4935091;29;20678;-74
2021/12/11 10:56:19;;;;;;;22.37;20.07;;;4.10;99.90;;;;;;4935003;29;20184;-74
2021/12/11 10:58:56;;;;;;;23.63;21.43;;;4.20;99.90;;;;;;4933748;29;20220;-74
2021/12/11 11:01:33;;;;;;;21.57;19.57;;;4.30;99.90;;;;;;4934593;29;20218;-74
2021/12/11 11:04:04;;;;;;;20.00;18.10;;;4.30;99.90;;;;;;4933654;29;20553;-74
2021/12/11 11:06:30;;;;;;;22.57;18.33;;;4.30;99.90;;;;;;4934761;29;20671;-72
2021/12/11 11:08:56;;;;;;;19.53;17.57;;;4.40;99.90;;;;;;4929410;29;20209;-74
2021/12/11 11:11:26;;;;;;;22.97;20.63;;;4.50;99.90;;;;;;4927319;29;20213;-75
2021/12/11 11:13:52;;;;;;;20.73;18.80;;;4.60;99.90;;;;;;4933437;29;20215;-76
2021/12/11 11:16:19;;;;;;;19.77;17.83;;;4.60;99.90;;;;;;4933282;29;20653;-73
2021/12/11 11:18:46;;;;;;;19.00;16.20;;;4.60;99.90;;;;;;4933222;29;20234;-74
2021/12/11 11:21:22;;;;;;;15.93;13.83;;;4.60;99.90;;;;;;4933481;29;20195;-74
2021/12/11 11:23:48;;;;;;;16.33;14.63;;;4.50;99.90;;;;;;4916194;29;20192;-71
2021/12/11 11:26:25;;;;;;;16.13;14.23;;;4.50;99.90;;;;;;4915291;29;20535;-72
2021/12/11 11:28:52;;;;;;;15.97;14.27;;;4.50;99.90;;;;;;4915210;29;20219;-73
2021/12/11 11:31:23;;;;;;;14.97;13.27;;;4.60;99.90;;;;;;4914661;29;20217;-73
2021/12/11 11:33:50;;;;;;;14.47;12.43;;;4.60;99.90;;;;;;4942067;29;20198;-73
2021/12/11 11:36:19;;;;;;;14.33;12.83;;;4.60;99.90;;;;;;4952845;28;20179;-73
2021/12/11 11:38:49;;;;;;;15.10;11.70;;;4.60;99.90;;;;;;4952656;28;20232;-73
2021/12/11 11:41:20;;;;;;;14.20;12.27;;;4.50;99.90;;;;;;4952756;28;20249;-73
2021/12/11 11:43:47;;;;;;;19.83;13.57;;;4.40;99.90;;;;;;4936985;28;20558;-74
2021/12/11 11:46:15;;;;;;;14.53;13.03;;;4.40;99.90;;;;;;4934131;29;20176;-74
2021/12/11 11:48:46;;;;;;;17.37;13.13;;;4.40;99.90;;;;;;4934079;29;20188;-73
2021/12/11 11:51:28;;;;;;;16.27;13.03;;;4.30;99.90;;;;;;4933814;29;20233;-74
2021/12/11 11:53:54;;;;;;;18.43;14.73;;;4.30;99.90;;;;;;4933645;29;20286;-73
2021/12/11 11:56:24;;;;;;;19.43;15.20;;;4.30;99.90;;;;;;4933016;29;20278;-73
2021/12/11 11:58:51;;;;;;;16.50;13.90;;;4.40;99.90;;;;;;4933998;29;20218;-73
2021/12/11 12:01:29;;;;;;;14.23;11.83;;;4.40;99.90;;;;;;4933644;29;20199;-73
2021/12/11 12:03:56;;;;;;;13.20;11.87;;;4.50;99.90;;;;;;4933771;29;20410;-73
2021/12/11 12:06:25;;;;;;;13.13;11.73;;;4.40;99.90;;;;;;4932849;29;20206;-73
2021/12/11 12:08:55;;;;;;;14.57;12.17;;;4.40;99.90;;;;;;4933414;29;20209;-73
2021/12/11 12:11:24;;;;;;;13.33;12.03;;;4.30;99.90;;;;;;4933393;29;20566;-73
2021/12/11 12:13:50;;;;;;;13.60;12.20;;;4.30;99.90;;;;;;4930224;29;20196;-73
2021/12/11 12:16:18;;;;;;;15.67;11.17;;;4.30;99.90;;;;;;4915456;29;20190;-74
2021/12/11 12:18:45;;;;;;;14.83;13.23;;;4.20;99.90;;;;;;4915020;29;20236;-73
2021/12/11 12:21:14;;;;;;;14.20;12.83;;;4.20;99.90;;;;;;4913546;29;20650;-74
2021/12/11 12:23:41;;;;;;;13.43;12.10;;;4.20;99.90;;;;;;4929038;29;20195;-74
2021/12/11 12:26:13;;;;;;;13.43;12.13;;;4.20;99.90;;;;;;4933892;29;20204;-74
2021/12/11 12:28:40;;;;;;;13.67;12.37;;;4.20;99.90;;;;;;4932743;29;20198;-74
2021/12/11 12:31:14;;;;;;;12.87;11.60;;;4.10;99.90;;;;;;4933539;29;20179;-73
2021/12/11 12:33:42;;;;;;;11.73;10.60;;;4.20;99.90;;;;;;4932328;29;20221;-74
2021/12/11 12:36:08;;;;;;;13.07;11.40;;;4.20;99.90;;;;;;4933638;29;20199;-74
2021/12/11 12:38:39;;;;;;;13.93;11.17;;;4.20;99.90;;;;;;4932617;29;20262;-73
2021/12/11 12:41:14;;;;;;;12.10;10.90;;;4.20;99.90;;;;;;4931846;29;20190;-73
2021/12/11 12:44:16;;;;;;;12.70;11.50;;;4.30;99.90;;;;;;4932330;29;20216;-73
2021/12/11 12:46:55;;;;;;;11.47;10.37;;;4.40;99.90;;;;;;4934278;29;20191;-73
2021/12/11 12:49:26;;;;;;;10.77;9.77;;;4.90;99.90;;;;;;4932453;29;20194;-74
2021/12/11 12:51:54;;;;;;;16.10;14.67;;;4.90;99.90;;;;;;4932911;29;20222;-73
2021/12/11 12:54:22;;;;;;;29.80;27.97;;;5.00;99.90;;;;;;4928929;29;20335;-73
2021/12/11 12:56:51;;;;;;;28.17;25.90;;;4.90;99.90;;;;;;4914743;29;20188;-74
2021/12/11 12:59:29;;;;;;;16.20;15.00;;;4.80;99.90;;;;;;4913536;29;20579;-74
2021/12/11 13:02:03;;;;;;;18.37;16.87;;;4.80;99.90;;;;;;4913165;29;20334;-74
2021/12/11 13:04:34;;;;;;;14.67;11.57;;;4.80;99.90;;;;;;4914337;29;20191;-74
2021/12/11 13:07:04;;;;;;;12.93;11.63;;;4.80;99.90;;;;;;4932549;29;20188;-75
2021/12/11 13:09:41;;;;;;;14.70;12.87;;;5.00;99.90;;;;;;4917850;29;20263;-74
2021/12/11 13:12:15;;;;;;;16.93;15.30;;;5.50;99.90;;;;;;4930030;29;20210;-75